Portada
METAR-TAF:

METAR-TAF

Aeropuertos :

Aeropuerto Internacional de Libreville-Leon M'ba

Libreville, Gabón

latitud: 00-27N, longitud: 009-25E, altitud: 12 m

Observación

El informe se hizo hace 1 hora y 1 minutos, a las 13:00 UTC
Viento 4 kt del norte-noreste
Temperatura 27°C
Humedad 84%
Presión 1011 hPa
Visibilidad 10 km o más
Escasas nubes a una altura de 1200 ft

METAR: FOOL 171300Z 03004KT 9999 FEW012 27/24 Q1011 NOSIG

Hora: 15:01 (14:01 UTC)

Pronóstico

El informe se hizo hace 3 horas y 1 minutos, a las 11:00 UTC
Pronóstico válido del 17 a las 12 UTC al 18 a las 18 UTC
Viento 7 kt del sur-suroeste
Visibilidad: 8000 m
Nubes dispersas a una altura de 1000 ft
Escasas nubes a una altura de 1800 ft, Cumulonimbus.
Cielo nuboso a una altura de 3300 ft
Probabilidad 30% :
Temporalmente
del 17 a las 12 UTC al 17 a las 18 UTC
tormenta

TAF: FOOL 171100Z 1712/1818 21007KT 8000 SCT010 FEW018CB BKN033 PROB30 TEMPO 1712/1718 TS

Observaciones y pronósticos meteorológicos de más de 4000 aeropuertos (mensajes METAR y TAF).

Los puntos amarillos y rojos representan las estaciones disponibles.

Ponga el ratón en el punto deseado para ver el nombre de la estación.

Haga clic para ver las observaciones y los pronósticos meteorológicos.

Para cambiar el mapa : haga clic en los botones verdes con una cruz de color negro para hacer un zoom, en el botón verde con un guión para alejar o en las flechas verdes para mapas adyacentes.


METAR-TAF: